createdAt,value
2018-08-16T00:01:16.424Z,101576.75
2018-08-16T00:03:46.716Z,101568.75
2018-08-16T00:06:23.034Z,101569.50
2018-08-16T00:08:53.556Z,101572.86
2018-08-16T00:11:26.804Z,101568.14
2018-08-16T00:13:59.801Z,101569.95
2018-08-16T00:16:30.129Z,101570.26
2018-08-16T00:19:03.146Z,101573.34
2018-08-16T00:21:36.748Z,101574.52
2018-08-16T00:24:15.080Z,101576.03
2018-08-16T00:26:45.446Z,101574.67
2018-08-16T00:29:15.850Z,101572.70
2018-08-16T00:31:47.700Z,101576.02
2018-08-16T00:34:18.608Z,101567.76
2018-08-16T00:36:49.238Z,101571.80
2018-08-16T00:39:20.368Z,101570.16
2018-08-16T00:41:50.633Z,101570.39
2018-08-16T00:44:25.420Z,101578.16
2018-08-16T00:46:58.386Z,101576.03
2018-08-16T00:49:33.566Z,101574.40
2018-08-16T00:52:04.280Z,101575.11
2018-08-16T00:54:35.286Z,101575.50
2018-08-16T00:57:05.432Z,101570.42
2018-08-16T00:59:39.115Z,101565.00
2018-08-16T01:02:11.240Z,101568.62
2018-08-16T01:04:43.840Z,101568.42
2018-08-16T01:07:17.433Z,101563.38
2018-08-16T01:09:48.242Z,101558.51
2018-08-16T01:12:21.754Z,101561.66
2018-08-16T01:14:53.204Z,101552.85
2018-08-16T01:17:23.939Z,101560.09
2018-08-16T01:19:57.553Z,101554.40
2018-08-16T01:22:27.659Z,101551.80
2018-08-16T01:25:02.202Z,101559.01
2018-08-16T01:27:32.917Z,101556.88
2018-08-16T01:30:03.059Z,101561.78
2018-08-16T01:32:33.389Z,101561.17
2018-08-16T01:35:03.480Z,101552.74
2018-08-16T01:37:33.955Z,101556.93
2018-08-16T01:40:06.183Z,101557.98
2018-08-16T01:42:39.772Z,101561.47
2018-08-16T01:45:11.220Z,101559.03
2018-08-16T01:47:43.427Z,101562.33
2018-08-16T01:50:15.448Z,101557.59
2018-08-16T01:52:50.888Z,101560.00
2018-08-16T01:55:23.880Z,101560.58
2018-08-16T01:57:56.563Z,101561.13
2018-08-16T02:00:28.763Z,101562.64
2018-08-16T02:03:01.610Z,101558.91
2018-08-16T02:05:34.532Z,101558.98
2018-08-16T02:08:06.704Z,101560.84
2018-08-16T02:10:38.823Z,101556.09
2018-08-16T02:13:11.443Z,101555.52
2018-08-16T02:16:04.303Z,101560.15
2018-08-16T02:18:34.782Z,101555.84
2018-08-16T02:21:05.388Z,101560.51
2018-08-16T02:23:35.949Z,101557.90
2018-08-16T02:26:08.153Z,101556.59
2018-08-16T02:28:40.908Z,101556.81
2018-08-16T02:31:14.303Z,101553.19
2018-08-16T02:33:45.941Z,101549.91
2018-08-16T02:36:15.998Z,101556.02
2018-08-16T02:38:46.019Z,101550.13
2018-08-16T02:41:17.958Z,101552.44
2018-08-16T02:43:49.336Z,101554.77
2018-08-16T02:46:21.994Z,101553.30
2018-08-16T02:48:52.434Z,101548.64
2018-08-16T02:51:22.097Z,101547.17
2018-08-16T02:53:52.467Z,101550.52
2018-08-16T02:56:22.543Z,101549.97
2018-08-16T02:58:53.245Z,101553.47
2018-08-16T03:01:23.903Z,101547.14
2018-08-16T03:04:00.432Z,101548.39
2018-08-16T03:06:34.574Z,101549.17
2018-08-16T03:09:06.586Z,101540.84
2018-08-16T03:11:40.249Z,101550.02
2018-08-16T03:14:12.490Z,101540.62
2018-08-16T03:16:42.701Z,101546.17
2018-08-16T03:19:15.414Z,101544.59
2018-08-16T03:21:48.291Z,101538.45
2018-08-16T03:24:19.591Z,101535.80
2018-08-16T03:26:50.123Z,101534.97
2018-08-16T03:29:20.764Z,101533.94
2018-08-16T03:31:52.216Z,101534.08
2018-08-16T03:34:22.367Z,101536.97
2018-08-16T03:36:53.191Z,101532.78
2018-08-16T03:39:27.770Z,101535.05
2018-08-16T03:42:00.697Z,101534.30
2018-08-16T03:44:30.939Z,101536.13
2018-08-16T03:47:02.131Z,101526.67
2018-08-16T03:49:32.242Z,101524.98
2018-08-16T03:52:03.996Z,101529.89
2018-08-16T03:54:35.575Z,101529.03
2018-08-16T03:57:06.546Z,101528.20
2018-08-16T03:59:39.020Z,101534.88
2018-08-16T04:02:09.205Z,101532.05
2018-08-16T04:04:40.595Z,101532.18
2018-08-16T04:07:14.247Z,101524.42
2018-08-16T04:09:44.627Z,101522.17
2018-08-16T04:12:17.659Z,101519.96
2018-08-16T04:14:47.977Z,101521.43
2018-08-16T04:17:20.306Z,101519.34
2018-08-16T04:19:54.466Z,101516.28
2018-08-16T04:22:26.859Z,101518.73
2018-08-16T04:24:59.068Z,101518.89
2018-08-16T04:27:30.411Z,101517.77
2018-08-16T04:30:00.727Z,101509.00
2018-08-16T04:32:33.778Z,101507.92
2018-08-16T04:35:07.524Z,101515.72
2018-08-16T04:37:39.849Z,101507.83
2018-08-16T04:40:09.948Z,101515.81
2018-08-16T04:42:44.208Z,101517.25
2018-08-16T04:45:14.450Z,101508.69
2018-08-16T04:47:47.785Z,101519.53
2018-08-16T04:50:18.266Z,101513.95
2018-08-16T04:52:49.206Z,101516.98
2018-08-16T04:55:20.971Z,101514.31
2018-08-16T04:57:53.588Z,101514.09
2018-08-16T05:00:23.968Z,101514.06
2018-08-16T05:02:56.674Z,101504.98
2018-08-16T05:05:29.766Z,101513.08
2018-08-16T05:08:03.436Z,101510.08
2018-08-16T05:10:35.337Z,101509.92
2018-08-16T05:13:05.657Z,101509.81
2018-08-16T05:15:36.967Z,101502.91
2018-08-16T05:18:08.471Z,101506.21
2018-08-16T05:20:38.701Z,101511.37
2018-08-16T05:23:12.151Z,101504.31
2018-08-16T05:25:43.223Z,101497.13
2018-08-16T05:28:16.085Z,101510.30
2018-08-16T05:30:48.378Z,101502.02
2018-08-16T05:33:21.242Z,101501.64
2018-08-16T05:35:51.488Z,101494.09
2018-08-16T05:38:25.596Z,101501.90
2018-08-16T05:40:58.507Z,101498.13
2018-08-16T05:43:29.289Z,101494.75
2018-08-16T05:45:59.644Z,101499.38
2018-08-16T05:48:30.256Z,101503.72
2018-08-16T05:51:03.112Z,101496.09
2018-08-16T05:53:34.265Z,101495.61
2018-08-16T05:56:11.084Z,101492.95
2018-08-16T05:58:45.862Z,101489.84
2018-08-16T06:01:17.047Z,101498.30
2018-08-16T06:03:48.315Z,101494.16
2018-08-16T06:06:18.617Z,101495.59
2018-08-16T06:08:55.209Z,101496.34
2018-08-16T06:11:28.587Z,101492.97
2018-08-16T06:13:59.519Z,101492.47
2018-08-16T06:16:30.284Z,101490.91
2018-08-16T06:19:02.524Z,101497.22
2018-08-16T06:22:57.185Z,101487.84
2018-08-16T06:25:27.605Z,101486.55
2018-08-16T06:27:59.935Z,101477.55
2018-08-16T06:30:30.769Z,101478.31
2018-08-16T06:33:04.328Z,101472.73
2018-08-16T06:35:35.769Z,101473.66
2018-08-16T06:38:07.569Z,101475.72
2018-08-16T06:40:38.858Z,101471.94
2018-08-16T06:43:09.728Z,101463.25
2018-08-16T06:45:51.957Z,101462.14
2018-08-16T06:48:24.435Z,101455.70
2018-08-16T06:50:54.904Z,101453.59
2018-08-16T06:53:29.097Z,101451.97
2018-08-16T06:55:59.647Z,101446.39
2018-08-16T06:58:30.017Z,101448.86
2018-08-16T07:01:10.573Z,101442.14
2018-08-16T07:03:44.882Z,101441.88
2018-08-16T07:06:43.168Z,101439.77
2018-08-16T07:09:13.618Z,101441.83
2018-08-16T07:11:43.909Z,101440.05
2018-08-16T07:14:14.861Z,101434.11
2018-08-16T07:16:45.398Z,101432.05
2018-08-16T07:19:17.831Z,101433.28
2018-08-16T07:21:49.745Z,101430.80
2018-08-16T07:24:20.721Z,101421.78
2018-08-16T07:26:51.146Z,101431.16
2018-08-16T07:29:21.624Z,101418.69
2018-08-16T07:31:52.388Z,101421.14
2018-08-16T07:34:24.300Z,101426.83
2018-08-16T07:36:56.845Z,101420.11
2018-08-16T07:39:29.219Z,101413.98
2018-08-16T07:42:01.621Z,101419.42
2018-08-16T07:44:32.527Z,101416.47
2018-08-16T07:47:04.509Z,101412.55
2018-08-16T07:49:36.660Z,101418.74
2018-08-16T07:52:10.550Z,101415.66
2018-08-16T07:54:42.070Z,101419.84
2018-08-16T07:57:15.842Z,101414.93
2018-08-16T07:59:46.295Z,101421.56
2018-08-16T08:02:17.002Z,101417.24
2018-08-16T08:04:47.704Z,101421.61
2018-08-16T08:07:28.308Z,101422.06
2018-08-16T08:10:12.052Z,101420.90
2018-08-16T08:12:43.900Z,101414.77
2018-08-16T08:15:22.254Z,101421.27
2018-08-16T08:17:56.371Z,101415.52
2018-08-16T08:20:37.618Z,101409.83
2018-08-16T08:23:12.812Z,101411.42
2018-08-16T08:25:53.410Z,101408.56
2018-08-16T08:28:31.913Z,101408.86
2018-08-16T08:33:46.598Z,101403.25
2018-08-16T08:36:39.252Z,101411.91
2018-08-16T08:39:14.235Z,101406.70
2018-08-16T08:42:13.677Z,101403.90
2018-08-16T08:47:58.343Z,101403.06
2018-08-16T08:54:56.513Z,101396.14
2018-08-16T08:57:43.390Z,101389.66
2018-08-16T09:00:15.532Z,101384.34
2018-08-16T09:02:47.467Z,101384.45
2018-08-16T09:05:20.762Z,101378.64
2018-08-16T09:07:52.069Z,101382.77
2018-08-16T09:11:09.379Z,101377.36
2018-08-16T09:14:01.529Z,101373.33
2018-08-16T09:16:50.261Z,101371.31
2018-08-16T09:19:40.275Z,101362.83
2018-08-16T09:22:17.517Z,101368.38
2018-08-16T09:24:55.470Z,101362.59
2018-08-16T09:27:39.645Z,101356.43
2018-08-16T09:30:28.671Z,101345.77
2018-08-16T09:34:26.612Z,101341.71
2018-08-16T09:37:05.873Z,101352.24
2018-08-16T09:40:02.701Z,101353.71
2018-08-16T09:42:44.949Z,101340.80
2018-08-16T09:45:37.769Z,101328.61
2018-08-16T09:51:16.939Z,101335.10
2018-08-16T09:53:51.416Z,101332.97
2018-08-16T09:56:39.959Z,101326.42
2018-08-16T09:59:14.584Z,101333.30
2018-08-16T10:15:37.606Z,101312.47
2018-08-16T10:18:10.921Z,101321.34
2018-08-16T10:20:48.742Z,101316.86
2018-08-16T10:23:19.668Z,101315.11
2018-08-16T10:25:52.154Z,101315.58
2018-08-16T10:28:23.088Z,101307.34
2018-08-16T10:30:56.830Z,101311.46
2018-08-16T10:33:32.281Z,101312.71
2018-08-16T10:36:03.570Z,101308.56
2018-08-16T10:38:37.493Z,101312.16
2018-08-16T10:41:10.308Z,101312.36
2018-08-16T10:43:40.796Z,101312.30
2018-08-16T10:46:12.177Z,101307.69
2018-08-16T10:48:46.201Z,101298.56
2018-08-16T10:51:16.788Z,101303.32
2018-08-16T10:53:47.116Z,101303.25
2018-08-16T10:56:18.327Z,101301.56
2018-08-16T10:58:49.121Z,101308.57
2018-08-16T11:01:20.283Z,101314.48
2018-08-16T11:03:52.319Z,101304.52
2018-08-16T11:06:24.460Z,101314.32
2018-08-16T11:09:03.740Z,101310.45
2018-08-16T11:11:38.060Z,101308.94
2018-08-16T11:14:18.626Z,101305.73
2018-08-16T11:16:54.006Z,101303.57
2018-08-16T11:19:25.557Z,101309.56
2018-08-16T11:22:00.095Z,101307.98
2018-08-16T11:24:33.646Z,101307.41
2018-08-16T11:27:04.917Z,101306.97
2018-08-16T11:29:39.194Z,101309.17
2018-08-16T11:32:11.365Z,101296.95
2018-08-16T11:34:46.332Z,101300.02
2018-08-16T11:37:18.316Z,101298.48
2018-08-16T11:39:52.773Z,101287.45
2018-08-16T11:42:27.869Z,101287.11
2018-08-16T11:45:03.697Z,101286.03
2018-08-16T11:47:34.296Z,101296.19
2018-08-16T11:50:09.885Z,101290.06
2018-08-16T11:52:40.945Z,101287.00
2018-08-16T11:55:11.614Z,101283.49
2018-08-16T11:57:42.146Z,101290.27
2018-08-16T12:00:15.870Z,101282.41
2018-08-16T12:02:48.830Z,101275.66
2018-08-16T12:05:23.204Z,101280.67
2018-08-16T12:07:55.586Z,101267.23
2018-08-16T12:10:34.135Z,101275.31
2018-08-16T12:13:08.765Z,101271.94
2018-08-16T12:18:42.751Z,101271.69
2018-08-16T12:21:25.977Z,101269.03
2018-08-16T12:26:52.705Z,101266.81
2018-08-16T12:32:01.100Z,101269.04
2018-08-16T12:34:32.951Z,101259.94
2018-08-16T12:37:07.891Z,101260.41
2018-08-16T12:39:38.264Z,101259.00
2018-08-16T12:42:14.574Z,101261.84
2018-08-16T12:44:45.398Z,101253.30
2018-08-16T12:47:23.164Z,101264.30
2018-08-16T12:49:54.201Z,101255.09
2018-08-16T12:52:26.631Z,101253.38
2018-08-16T12:55:01.909Z,101249.77
2018-08-16T12:57:33.619Z,101246.47
2018-08-16T13:00:04.979Z,101240.20
2018-08-16T13:02:37.536Z,101233.97
2018-08-16T13:05:10.126Z,101234.52
2018-08-16T13:07:43.175Z,101228.47
2018-08-16T13:10:17.424Z,101241.01
2018-08-16T13:12:48.750Z,101235.18
2018-08-16T13:15:20.529Z,101235.91
2018-08-16T13:17:51.388Z,101222.19
2018-08-16T13:20:22.577Z,101230.05
2018-08-16T13:22:57.253Z,101237.05
2018-08-16T13:25:29.993Z,101226.67
2018-08-16T13:28:00.545Z,101224.36
2018-08-16T13:30:34.738Z,101222.51
2018-08-16T13:33:09.643Z,101223.11
2018-08-16T13:35:41.961Z,101224.06
2018-08-16T13:38:22.035Z,101216.16
2018-08-16T13:43:50.675Z,101216.27
2018-08-16T13:46:24.928Z,101215.75
2018-08-16T13:49:06.078Z,101213.68
2018-08-16T13:51:40.216Z,101212.05
2018-08-16T13:54:11.600Z,101207.45
2018-08-16T13:56:42.232Z,101202.55
2018-08-16T13:59:13.338Z,101201.22
2018-08-16T14:01:44.413Z,101198.02
2018-08-16T14:04:19.930Z,101196.49
2018-08-16T14:06:52.133Z,101202.14
2018-08-16T14:09:27.755Z,101189.09
2018-08-16T14:12:01.959Z,101198.90
2018-08-16T14:14:40.168Z,101183.36
2018-08-16T14:17:15.868Z,101192.09
2018-08-16T14:19:51.667Z,101198.72
2018-08-16T14:25:03.385Z,101194.44
2018-08-16T14:27:37.149Z,101196.53
2018-08-16T14:30:20.387Z,101192.42
2018-08-16T14:32:57.671Z,101195.84
2018-08-16T14:35:37.666Z,101188.59
2018-08-16T14:38:11.814Z,101194.30
2018-08-16T14:40:42.711Z,101186.88
2018-08-16T14:43:17.316Z,101196.92
2018-08-16T14:45:50.520Z,101190.19
2018-08-16T14:48:25.382Z,101187.67
2018-08-16T14:50:58.245Z,101177.13
2018-08-16T14:53:33.056Z,101183.83
2018-08-16T14:56:08.657Z,101184.33
2018-08-16T14:58:44.013Z,101179.26
2018-08-16T15:01:21.198Z,101176.77
2018-08-16T15:03:57.773Z,101171.56
2018-08-16T15:06:32.516Z,101178.08
2018-08-16T15:09:05.811Z,101180.48
2018-08-16T15:11:38.472Z,101180.68
2018-08-16T15:14:09.745Z,101174.83
2018-08-16T15:16:40.495Z,101172.45
2018-08-16T15:19:13.851Z,101176.82
2018-08-16T15:21:53.323Z,101175.80
2018-08-16T15:24:24.279Z,101178.92
2018-08-16T15:26:57.670Z,101177.45
2018-08-16T15:29:28.135Z,101170.96
2018-08-16T15:31:58.761Z,101177.15
2018-08-16T15:34:29.560Z,101173.00
2018-08-16T15:37:00.685Z,101165.62
2018-08-16T15:39:34.740Z,101173.52
2018-08-16T15:42:07.357Z,101173.77
2018-08-16T15:44:37.553Z,101172.94
2018-08-16T15:47:09.772Z,101171.31
2018-08-16T15:49:40.141Z,101170.17
2018-08-16T15:52:10.673Z,101173.39
2018-08-16T15:54:40.925Z,101171.47
2018-08-16T15:57:12.650Z,101175.89
2018-08-16T15:59:42.515Z,101173.27
2018-08-16T16:02:12.888Z,101173.10
2018-08-16T16:04:43.851Z,101177.91
2018-08-16T16:07:14.246Z,101178.55
2018-08-16T16:09:44.616Z,101174.27
2018-08-16T16:12:14.782Z,101178.27
2018-08-16T16:14:45.597Z,101174.88
2018-08-16T16:17:15.834Z,101177.25
2018-08-16T16:19:46.079Z,101182.72
2018-08-16T16:22:19.907Z,101171.68
2018-08-16T16:24:51.164Z,101171.84
2018-08-16T16:27:21.777Z,101174.55
2018-08-16T16:29:55.700Z,101165.03
2018-08-16T16:32:26.002Z,101166.58
2018-08-16T16:34:59.888Z,101172.29
2018-08-16T16:37:31.266Z,101158.91
2018-08-16T16:40:03.106Z,101169.23
2018-08-16T16:42:34.881Z,101166.08
2018-08-16T16:45:08.439Z,101172.55
2018-08-16T16:47:42.196Z,101169.32
2018-08-16T16:50:12.900Z,101167.31
2018-08-16T16:52:42.950Z,101164.45
2018-08-16T16:55:15.207Z,101166.79
2018-08-16T16:57:48.160Z,101163.69
2018-08-16T17:00:22.379Z,101163.16
2018-08-16T17:02:52.552Z,101161.33
2018-08-16T17:05:23.569Z,101169.73
2018-08-16T17:07:54.528Z,101168.36
2018-08-16T17:10:24.723Z,101163.72
2018-08-16T17:15:43.776Z,101174.08
2018-08-16T17:18:14.128Z,101173.14
2018-08-16T17:20:45.154Z,101172.78
2018-08-16T17:23:16.316Z,101176.19
2018-08-16T17:25:47.376Z,101180.07
2018-08-16T17:28:17.556Z,101176.44
2018-08-16T17:30:48.564Z,101182.15
2018-08-16T17:33:18.937Z,101180.12
2018-08-16T17:35:50.090Z,101193.73
2018-08-16T17:38:22.038Z,101193.40
2018-08-16T17:40:54.264Z,101187.23
2018-08-16T17:43:25.080Z,101186.44
2018-08-16T17:45:56.595Z,101184.19
2018-08-16T17:48:26.681Z,101185.40
2018-08-16T17:51:03.607Z,101191.97
2018-08-16T17:53:36.046Z,101195.66
2018-08-16T17:56:06.880Z,101197.55
2018-08-16T17:58:39.410Z,101201.14
2018-08-16T18:01:10.101Z,101204.70
2018-08-16T18:03:40.852Z,101201.66
2018-08-16T18:06:11.440Z,101210.81
2018-08-16T18:08:42.403Z,101211.97
2018-08-16T18:11:13.962Z,101217.45
2018-08-16T18:13:44.873Z,101213.94
2018-08-16T18:16:15.421Z,101217.77
2018-08-16T18:18:45.744Z,101219.55
2018-08-16T18:21:16.767Z,101227.70
2018-08-16T18:23:47.272Z,101225.71
2018-08-16T18:26:17.537Z,101223.09
2018-08-16T18:28:48.743Z,101233.45
2018-08-16T18:31:21.078Z,101239.41
2018-08-16T18:33:53.220Z,101230.84
2018-08-16T18:36:30.277Z,101236.08
2018-08-16T18:39:04.418Z,101236.16
2018-08-16T18:41:42.712Z,101236.48
2018-08-16T18:44:19.467Z,101237.91
2018-08-16T18:46:52.654Z,101245.88
2018-08-16T18:49:26.679Z,101245.05
2018-08-16T18:52:00.124Z,101253.41
2018-08-16T18:54:32.577Z,101258.02
2018-08-16T18:57:03.526Z,101256.25
2018-08-16T18:59:40.589Z,101249.19
2018-08-16T19:02:12.310Z,101243.27
2018-08-16T19:04:43.956Z,101244.92
2018-08-16T19:07:20.392Z,101256.33
2018-08-16T19:09:53.487Z,101256.06
2018-08-16T19:12:35.168Z,101257.70
2018-08-16T19:20:27.984Z,101267.48
2018-08-16T19:23:03.175Z,101267.87
2018-08-16T19:25:38.346Z,101266.64
2018-08-16T19:28:10.774Z,101270.07
2018-08-16T19:30:47.001Z,101261.41
2018-08-16T19:33:19.344Z,101266.73
2018-08-16T19:35:51.382Z,101258.39
2018-08-16T19:38:24.574Z,101262.92
2018-08-16T19:40:58.065Z,101253.65
2018-08-16T19:43:32.110Z,101257.36
2018-08-16T19:46:04.556Z,101254.77
2018-08-16T20:02:11.141Z,101272.58
2018-08-16T20:04:42.519Z,101261.37
2018-08-16T20:07:13.298Z,101256.58
2018-08-16T20:09:44.673Z,101268.16
2018-08-16T20:12:15.069Z,101262.17
2018-08-16T20:14:46.953Z,101264.30
2018-08-16T20:17:19.846Z,101267.50
2018-08-16T20:19:50.498Z,101263.86
2018-08-16T20:22:22.029Z,101266.39
2018-08-16T20:24:53.693Z,101266.60
2018-08-16T20:27:24.151Z,101268.34
2018-08-16T20:29:56.434Z,101265.50
2018-08-16T20:32:28.125Z,101269.98
2018-08-16T20:34:59.131Z,101266.88
2018-08-16T20:37:29.746Z,101264.94
2018-08-16T20:40:00.120Z,101278.03
2018-08-16T20:42:32.887Z,101277.55
2018-08-16T20:45:03.835Z,101276.70
2018-08-16T20:47:34.461Z,101281.80
2018-08-16T20:50:06.272Z,101280.70
2018-08-16T20:52:38.344Z,101282.41
2018-08-16T20:55:09.923Z,101289.56
2018-08-16T20:57:44.663Z,101286.48
2018-08-16T21:00:14.868Z,101290.60
2018-08-16T21:02:44.833Z,101299.05
2018-08-16T21:05:15.523Z,101296.55
2018-08-16T21:07:48.172Z,101299.03
2018-08-16T21:10:18.528Z,101308.44
2018-08-16T21:12:55.896Z,101305.71
2018-08-16T21:15:27.391Z,101318.57
2018-08-16T21:18:01.485Z,101324.53
2018-08-16T21:20:34.444Z,101321.42
2018-08-16T21:23:11.124Z,101321.93
2018-08-16T21:25:42.048Z,101331.84
2018-08-16T21:28:13.821Z,101331.13
2018-08-16T21:30:45.136Z,101337.34
2018-08-16T21:33:17.055Z,101333.13
2018-08-16T21:35:47.266Z,101334.48
2018-08-16T21:38:18.676Z,101336.69
2018-08-16T21:40:49.455Z,101340.18
2018-08-16T21:43:21.996Z,101341.55
2018-08-16T21:45:52.196Z,101343.38
2018-08-16T21:48:23.611Z,101340.98
2018-08-16T21:50:55.158Z,101347.64
2018-08-16T21:53:25.388Z,101344.08
2018-08-16T21:55:55.595Z,101337.41
2018-08-16T21:58:27.342Z,101337.27
2018-08-16T22:01:04.128Z,101345.54
2018-08-16T22:03:35.969Z,101347.36
2018-08-16T22:06:13.402Z,101343.69
2018-08-16T22:08:49.423Z,101342.81
2018-08-16T22:11:20.358Z,101344.12
2018-08-16T22:13:51.567Z,101348.30
2018-08-16T22:16:22.971Z,101345.16
2018-08-16T22:18:53.649Z,101355.13
2018-08-16T22:21:23.651Z,101359.73
2018-08-16T22:23:54.732Z,101352.55
2018-08-16T22:26:25.688Z,101357.02
2018-08-16T22:28:57.221Z,101358.84
2018-08-16T22:31:29.437Z,101363.88
2018-08-16T22:34:00.144Z,101362.77
2018-08-16T22:36:32.989Z,101355.31
2018-08-16T22:39:05.863Z,101352.68
2018-08-16T22:41:36.463Z,101349.16
2018-08-16T22:44:07.911Z,101353.95
2018-08-16T22:46:39.296Z,101359.27
2018-08-16T22:49:59.873Z,101348.83
2018-08-16T22:52:31.225Z,101347.61
2018-08-16T22:55:04.197Z,101342.44
2018-08-16T22:57:36.327Z,101349.73
2018-08-16T23:00:08.972Z,101344.29
2018-08-16T23:02:44.860Z,101335.27
2018-08-16T23:05:16.024Z,101338.53
2018-08-16T23:07:48.459Z,101336.45
2018-08-16T23:10:23.216Z,101336.34
2018-08-16T23:12:56.063Z,101332.52
2018-08-16T23:15:27.767Z,101331.28
2018-08-16T23:18:01.669Z,101338.16
2018-08-16T23:20:31.983Z,101332.44
2018-08-16T23:23:05.787Z,101338.83
2018-08-16T23:25:45.554Z,101340.70
2018-08-16T23:28:18.207Z,101346.13
2018-08-16T23:30:49.489Z,101347.09
2018-08-16T23:33:21.337Z,101345.33
2018-08-16T23:35:52.751Z,101345.06
2018-08-16T23:41:05.773Z,101340.56
2018-08-16T23:43:35.948Z,101334.73
2018-08-16T23:46:08.474Z,101331.81
2018-08-16T23:48:42.098Z,101330.80
2018-08-16T23:51:16.171Z,101328.87
2018-08-16T23:53:50.321Z,101322.03
2018-08-16T23:56:20.722Z,101325.37
2018-08-16T23:58:51.959Z,101320.89
